Time;durP1;ratioP1;P1;durP2;ratioP2;P2;SDS_P1;SDS_P2;PMS_P1;PMS_P2;Temp;Humidity;BMP_temperature;BMP_pressure;BME280_temperature;BME280_humidity;BME280_pressure;Samples;Min_cycle;Max_cycle;Signal;HPM_P1;HPM_P2
2021/09/11 00:00:17;;;;;;;39.80;22.70;;;22.70;84.80;;;;;;5052532;28;20029;-77
2021/09/11 00:02:43;;;;;;;36.92;22.27;;;22.70;84.80;;;;;;5038084;28;20045;-77
2021/09/11 00:05:09;;;;;;;39.22;22.65;;;22.60;84.30;;;;;;5052787;28;20079;-78
2021/09/11 00:07:35;;;;;;;35.97;22.50;;;22.60;84.50;;;;;;5053566;28;20086;-78
2021/09/11 00:10:01;;;;;;;40.05;22.55;;;22.60;84.70;;;;;;5048045;28;20518;-77
2021/09/11 00:12:26;;;;;;;36.45;23.00;;;22.60;84.90;;;;;;5032977;28;20541;-77
2021/09/11 00:14:52;;;;;;;32.90;22.30;;;22.60;85.10;;;;;;5033567;28;20053;-77
2021/09/11 00:17:18;;;;;;;40.08;23.45;;;22.60;84.80;;;;;;5041669;28;20044;-77
2021/09/11 00:19:43;;;;;;;40.00;22.25;;;22.60;85.00;;;;;;5048886;28;20036;-77
2021/09/11 00:22:09;;;;;;;35.63;21.15;;;22.60;84.80;;;;;;5043857;28;20033;-76
2021/09/11 00:24:35;;;;;;;42.97;22.25;;;22.50;84.80;;;;;;5040002;28;20021;-77
2021/09/11 00:27:00;;;;;;;37.78;22.13;;;22.50;85.00;;;;;;5044615;28;20032;-77
2021/09/11 00:29:26;;;;;;;35.58;22.40;;;22.50;85.30;;;;;;5034043;28;20120;-77
2021/09/11 00:31:52;;;;;;;37.03;22.35;;;22.50;85.00;;;;;;5036541;28;20033;-77
2021/09/11 00:34:17;;;;;;;40.65;23.52;;;22.50;85.20;;;;;;5038470;28;20017;-77
2021/09/11 00:36:43;;;;;;;38.30;22.92;;;22.50;85.60;;;;;;5033757;28;20029;-77
2021/09/11 00:39:09;;;;;;;33.03;21.48;;;22.50;85.70;;;;;;5038811;28;20025;-77
2021/09/11 00:41:34;;;;;;;36.10;21.17;;;22.50;85.50;;;;;;5039983;28;20036;-77
2021/09/11 00:44:00;;;;;;;36.38;21.02;;;22.50;85.30;;;;;;5036874;28;20068;-77
2021/09/11 00:46:26;;;;;;;39.10;23.48;;;22.50;84.70;;;;;;5050375;28;20554;-77
2021/09/11 00:48:51;;;;;;;33.97;20.75;;;22.40;84.50;;;;;;5037712;28;20123;-77
2021/09/11 00:51:17;;;;;;;33.25;20.92;;;22.40;84.30;;;;;;5032536;28;20384;-77
2021/09/11 00:53:43;;;;;;;31.73;16.98;;;22.40;84.70;;;;;;5042464;28;20066;-77
2021/09/11 00:56:09;;;;;;;30.30;20.60;;;22.40;83.50;;;;;;5051335;28;20024;-77
2021/09/11 00:58:35;;;;;;;19.05;10.48;;;22.30;83.60;;;;;;5048631;28;20040;-77
2021/09/11 01:01:01;;;;;;;28.40;18.17;;;22.30;82.70;;;;;;5034609;28;20021;-77
2021/09/11 01:03:27;;;;;;;29.08;16.77;;;22.30;83.50;;;;;;5033714;28;20030;-77
2021/09/11 01:05:52;;;;;;;29.65;20.50;;;22.30;83.60;;;;;;5032792;28;20027;-77
2021/09/11 01:08:19;;;;;;;35.42;20.67;;;22.30;84.20;;;;;;5032007;28;20393;-77
2021/09/11 01:10:44;;;;;;;29.58;20.00;;;22.30;84.60;;;;;;5034346;28;20032;-77
2021/09/11 01:13:10;;;;;;;33.22;19.58;;;22.20;84.70;;;;;;5044558;28;20033;-77
2021/09/11 01:15:40;;;;;;;29.60;18.40;;;22.20;84.80;;;;;;5031933;28;20026;-77
2021/09/11 01:18:07;;;;;;;27.95;15.48;;;22.20;85.00;;;;;;5039821;28;20082;-77
2021/09/11 01:20:34;;;;;;;29.00;17.85;;;22.30;84.70;;;;;;5043451;28;20025;-77
2021/09/11 01:23:00;;;;;;;31.30;19.42;;;22.20;85.00;;;;;;5048542;28;20033;-77
2021/09/11 01:25:26;;;;;;;25.85;16.92;;;22.20;85.00;;;;;;5039146;28;20025;-79
2021/09/11 01:27:52;;;;;;;26.15;16.98;;;22.20;85.10;;;;;;5041730;28;20037;-77
2021/09/11 01:30:20;;;;;;;24.67;16.27;;;22.20;84.80;;;;;;5032848;28;20030;-77
2021/09/11 01:32:47;;;;;;;24.10;13.55;;;22.20;84.70;;;;;;5041433;28;20454;-77
2021/09/11 01:35:14;;;;;;;27.42;16.00;;;22.20;84.20;;;;;;5034070;28;20018;-78
2021/09/11 01:37:39;;;;;;;26.70;17.75;;;22.20;84.50;;;;;;5033805;28;20030;-77
2021/09/11 01:40:06;;;;;;;27.23;17.17;;;22.10;84.90;;;;;;5032009;28;20358;-77
2021/09/11 01:42:32;;;;;;;27.02;17.65;;;22.10;85.30;;;;;;5035737;28;20057;-77
2021/09/11 01:45:19;;;;;;;27.30;17.48;;;22.20;85.50;;;;;;5033207;28;20091;-77
2021/09/11 01:47:46;;;;;;;26.30;15.82;;;22.10;85.20;;;;;;5032673;28;20072;-78
2021/09/11 01:50:14;;;;;;;24.48;16.67;;;22.10;85.10;;;;;;5034449;28;20054;-77
2021/09/11 01:52:40;;;;;;;33.53;14.95;;;22.10;85.40;;;;;;5036536;28;20029;-77
2021/09/11 01:55:08;;;;;;;25.98;15.55;;;22.10;85.30;;;;;;5050705;28;20393;-77
2021/09/11 01:57:45;;;;;;;25.55;16.10;;;22.10;85.60;;;;;;5049766;28;20032;-77
2021/09/11 02:00:11;;;;;;;27.05;16.35;;;22.10;85.30;;;;;;5040167;28;20025;-77
2021/09/11 02:02:37;;;;;;;27.67;15.90;;;22.10;85.20;;;;;;5050181;28;20072;-78
2021/09/11 02:05:08;;;;;;;24.27;15.77;;;22.10;85.40;;;;;;5049176;28;20040;-77
2021/09/11 02:07:33;;;;;;;26.75;14.50;;;22.10;85.60;;;;;;5051844;28;20037;-77
2021/09/11 02:09:59;;;;;;;23.67;13.15;;;22.10;85.30;;;;;;5035721;28;20021;-77
2021/09/11 02:12:25;;;;;;;20.05;14.60;;;22.10;85.50;;;;;;5051336;28;20415;-77
2021/09/11 02:14:50;;;;;;;23.50;13.40;;;22.10;85.30;;;;;;5049442;28;20056;-78
2021/09/11 02:17:16;;;;;;;23.17;13.75;;;22.10;86.00;;;;;;5045374;28;20037;-78
2021/09/11 02:19:42;;;;;;;18.70;12.77;;;22.10;84.90;;;;;;5038085;28;20045;-77
2021/09/11 02:22:10;;;;;;;20.75;11.88;;;22.10;85.10;;;;;;5032294;28;20044;-77
2021/09/11 02:24:37;;;;;;;19.45;11.43;;;22.10;85.00;;;;;;5033987;28;20496;-77
2021/09/11 02:27:03;;;;;;;21.52;10.57;;;22.10;85.00;;;;;;5045186;28;20477;-77
2021/09/11 02:29:29;;;;;;;17.48;11.10;;;22.10;84.90;;;;;;5039232;28;20044;-77
2021/09/11 02:31:55;;;;;;;16.50;10.85;;;22.10;85.00;;;;;;5042452;28;20119;-77
2021/09/11 02:34:21;;;;;;;21.25;10.35;;;22.00;85.30;;;;;;5032682;28;20532;-77
2021/09/11 02:36:46;;;;;;;18.98;10.13;;;22.00;85.10;;;;;;5034163;28;20531;-78
2021/09/11 02:39:12;;;;;;;16.88;10.50;;;22.00;85.40;;;;;;5030944;28;20026;-77
2021/09/11 02:41:38;;;;;;;13.05;9.85;;;22.00;85.40;;;;;;5040793;28;20072;-77
2021/09/11 02:44:04;;;;;;;15.25;9.95;;;22.00;85.10;;;;;;5049995;28;20032;-77
2021/09/11 02:46:30;;;;;;;17.80;10.90;;;22.00;85.30;;;;;;5049461;28;20029;-77
2021/09/11 02:48:57;;;;;;;15.48;9.05;;;22.00;85.10;;;;;;5050815;28;20045;-78
2021/09/11 02:51:24;;;;;;;15.18;9.32;;;22.00;85.30;;;;;;5049732;28;20029;-77
2021/09/11 02:53:50;;;;;;;12.70;8.70;;;22.00;85.20;;;;;;5035898;28;20034;-78
2021/09/11 02:56:16;;;;;;;15.70;9.07;;;22.10;85.30;;;;;;5047290;28;20131;-78
2021/09/11 02:58:41;;;;;;;13.00;9.02;;;22.00;84.80;;;;;;5035793;28;20063;-77
2021/09/11 03:01:07;;;;;;;15.77;8.68;;;22.00;84.60;;;;;;5035040;28;20025;-77
2021/09/11 03:03:32;;;;;;;13.15;8.43;;;22.00;84.80;;;;;;5048024;28;20025;-78
2021/09/11 03:05:58;;;;;;;13.20;8.80;;;22.00;85.10;;;;;;5035887;28;20113;-78
2021/09/11 03:08:24;;;;;;;13.77;8.75;;;22.00;85.10;;;;;;5036764;28;20087;-78
2021/09/11 03:10:49;;;;;;;16.05;9.30;;;21.90;84.70;;;;;;5045411;28;20432;-77
2021/09/11 03:13:16;;;;;;;13.73;8.77;;;21.90;84.90;;;;;;5035289;28;20100;-77
2021/09/11 03:15:41;;;;;;;12.38;8.43;;;21.90;85.20;;;;;;5035044;28;20029;-77
2021/09/11 03:18:07;;;;;;;14.27;7.97;;;21.90;84.60;;;;;;5047921;28;20037;-77
2021/09/11 03:20:33;;;;;;;14.00;9.18;;;21.90;84.40;;;;;;5051730;28;20032;-77
2021/09/11 03:22:58;;;;;;;14.20;8.98;;;21.90;84.40;;;;;;5053726;28;20487;-78
2021/09/11 03:25:24;;;;;;;15.35;8.20;;;21.90;84.50;;;;;;5038791;28;20458;-78
2021/09/11 03:27:50;;;;;;;16.25;10.52;;;21.90;84.40;;;;;;5043398;28;20044;-77
2021/09/11 03:30:15;;;;;;;20.13;10.60;;;21.90;84.80;;;;;;5048782;28;20440;-77
2021/09/11 03:32:41;;;;;;;14.93;10.02;;;21.80;84.50;;;;;;5049419;28;20037;-77
2021/09/11 03:35:07;;;;;;;16.27;10.95;;;21.80;84.60;;;;;;5043349;28;20029;-78
2021/09/11 03:37:33;;;;;;;16.42;11.18;;;21.80;84.80;;;;;;5038756;28;20032;-77
2021/09/11 03:39:59;;;;;;;18.48;11.45;;;21.80;84.90;;;;;;5043854;28;20021;-78
2021/09/11 03:42:24;;;;;;;21.50;12.18;;;21.80;84.80;;;;;;5041191;28;20033;-77
2021/09/11 03:44:50;;;;;;;19.73;11.82;;;21.80;84.60;;;;;;5048789;28;20048;-78
2021/09/11 03:47:16;;;;;;;20.80;12.77;;;21.70;84.50;;;;;;5041595;28;20033;-77
2021/09/11 03:49:41;;;;;;;20.83;13.32;;;21.70;84.80;;;;;;5052368;28;20048;-78
2021/09/11 03:52:07;;;;;;;24.15;13.07;;;21.70;84.80;;;;;;5037251;28;20492;-77
2021/09/11 03:54:33;;;;;;;25.10;14.77;;;21.70;84.90;;;;;;5045470;28;20108;-78
2021/09/11 03:56:58;;;;;;;23.48;14.40;;;21.70;85.00;;;;;;5036555;28;20025;-78
2021/09/11 03:59:24;;;;;;;29.00;16.10;;;21.70;85.00;;;;;;5046562;28;20025;-78
2021/09/11 04:01:49;;;;;;;24.23;13.32;;;21.70;84.70;;;;;;5040834;28;20029;-78
2021/09/11 04:04:15;;;;;;;24.45;15.40;;;21.70;84.70;;;;;;5044809;28;20033;-78
2021/09/11 04:06:41;;;;;;;26.17;15.52;;;21.60;84.70;;;;;;5039613;28;20456;-77
2021/09/11 04:09:07;;;;;;;27.55;15.65;;;21.70;84.80;;;;;;5042886;28;20029;-77
2021/09/11 04:11:32;;;;;;;25.27;14.23;;;21.60;84.60;;;;;;5038671;28;20388;-78
2021/09/11 04:13:58;;;;;;;26.42;15.13;;;21.60;84.50;;;;;;5034508;28;20025;-78
2021/09/11 04:16:24;;;;;;;24.63;12.55;;;21.60;84.60;;;;;;5037515;28;20028;-78
2021/09/11 04:18:49;;;;;;;15.73;9.27;;;21.50;84.10;;;;;;5050881;28;20036;-78
2021/09/11 04:21:15;;;;;;;25.10;13.93;;;21.60;84.10;;;;;;5045644;28;20029;-77
2021/09/11 04:23:41;;;;;;;27.65;14.95;;;21.50;84.50;;;;;;5039836;28;20021;-78
2021/09/11 04:26:07;;;;;;;23.85;13.18;;;21.50;84.90;;;;;;5044181;28;20133;-78
2021/09/11 04:28:32;;;;;;;22.40;12.55;;;21.50;84.90;;;;;;5035974;28;20040;-77
2021/09/11 04:30:58;;;;;;;16.90;9.25;;;21.40;85.10;;;;;;5051640;28;20021;-78
2021/09/11 04:33:24;;;;;;;21.58;11.63;;;21.40;85.00;;;;;;5047647;28;20542;-78
2021/09/11 04:35:49;;;;;;;15.32;9.10;;;21.30;85.40;;;;;;5051103;28;20028;-78
2021/09/11 04:38:15;;;;;;;29.33;15.52;;;21.30;85.50;;;;;;5051336;28;20060;-78
2021/09/11 04:40:41;;;;;;;21.73;11.90;;;21.30;86.00;;;;;;5051639;28;20387;-78
2021/09/11 04:43:07;;;;;;;25.17;13.52;;;21.30;86.00;;;;;;5042884;28;20496;-77
2021/09/11 04:45:34;;;;;;;26.48;16.85;;;21.30;86.20;;;;;;5033846;28;20362;-77
2021/09/11 04:48:00;;;;;;;16.63;9.77;;;21.20;86.50;;;;;;5052666;28;20025;-78
2021/09/11 04:50:26;;;;;;;26.02;15.52;;;21.30;86.20;;;;;;5052820;28;20040;-78
2021/09/11 04:52:51;;;;;;;23.90;13.63;;;21.20;86.40;;;;;;5037542;28;20384;-78
2021/09/11 04:55:17;;;;;;;19.27;11.00;;;21.20;86.20;;;;;;5052668;28;20032;-78
2021/09/11 04:57:43;;;;;;;18.60;9.55;;;21.20;86.20;;;;;;5048209;28;20468;-77
2021/09/11 05:00:09;;;;;;;17.45;10.18;;;21.10;86.20;;;;;;5042768;28;20037;-78
2021/09/11 05:02:35;;;;;;;17.65;9.27;;;21.10;86.20;;;;;;5043801;28;20098;-78
2021/09/11 05:05:01;;;;;;;18.30;8.88;;;21.10;86.30;;;;;;5046844;28;20116;-78
2021/09/11 05:07:26;;;;;;;24.33;12.93;;;21.10;86.40;;;;;;5042810;28;20041;-78
2021/09/11 05:09:52;;;;;;;27.13;14.40;;;21.10;86.50;;;;;;5046447;28;20125;-78
2021/09/11 05:12:17;;;;;;;26.17;14.20;;;21.10;86.50;;;;;;5039196;28;20119;-78
2021/09/11 05:14:43;;;;;;;25.25;12.45;;;21.20;86.80;;;;;;5045523;28;20116;-77
2021/09/11 05:17:09;;;;;;;24.45;14.05;;;21.10;86.50;;;;;;5042627;28;20038;-78
2021/09/11 05:19:34;;;;;;;24.90;14.43;;;21.20;86.60;;;;;;5042124;28;20039;-78
2021/09/11 05:22:00;;;;;;;25.40;14.43;;;21.20;86.50;;;;;;5031924;28;20083;-78
2021/09/11 05:24:26;;;;;;;25.15;14.70;;;21.20;86.40;;;;;;5045768;28;20029;-78
2021/09/11 05:26:52;;;;;;;26.85;13.00;;;21.20;86.40;;;;;;5037892;28;20450;-78
2021/09/11 05:29:17;;;;;;;24.27;12.90;;;21.20;86.30;;;;;;5044354;28;20025;-78
2021/09/11 05:31:43;;;;;;;19.38;11.10;;;21.20;86.80;;;;;;5039658;28;20025;-78
2021/09/11 05:34:09;;;;;;;20.17;11.43;;;21.20;86.40;;;;;;5042679;28;20071;-78
2021/09/11 05:36:35;;;;;;;21.35;10.25;;;21.20;85.70;;;;;;5048427;28;20482;-77
2021/09/11 05:39:01;;;;;;;22.00;10.25;;;21.20;85.70;;;;;;5039840;28;20040;-78
2021/09/11 05:41:27;;;;;;;11.90;6.38;;;21.20;85.60;;;;;;5037807;28;20113;-78
2021/09/11 05:43:53;;;;;;;20.27;9.88;;;21.20;85.30;;;;;;5032080;28;20534;-78
2021/09/11 05:46:19;;;;;;;13.98;6.82;;;21.20;85.60;;;;;;5034117;28;20037;-78
2021/09/11 05:48:45;;;;;;;21.33;7.97;;;21.10;85.30;;;;;;5033507;28;20497;-78
2021/09/11 05:51:11;;;;;;;13.15;6.45;;;21.10;85.50;;;;;;5033360;28;20037;-78
2021/09/11 05:53:36;;;;;;;11.85;7.10;;;21.10;85.70;;;;;;5031744;28;20035;-78
2021/09/11 05:56:02;;;;;;;5.47;3.42;;;21.10;86.00;;;;;;5033291;28;20575;-78
2021/09/11 05:58:29;;;;;;;13.25;7.13;;;21.00;86.00;;;;;;5031965;28;20056;-78
2021/09/11 06:00:55;;;;;;;11.30;5.50;;;21.00;86.40;;;;;;5043757;28;20053;-78
2021/09/11 06:03:21;;;;;;;16.40;6.22;;;21.00;86.30;;;;;;5040092;28;20068;-78
2021/09/11 06:05:47;;;;;;;15.07;6.40;;;21.00;86.30;;;;;;5040412;28;20021;-78
2021/09/11 06:08:13;;;;;;;11.95;6.97;;;20.90;86.30;;;;;;5038274;28;20032;-78
2021/09/11 06:10:38;;;;;;;14.85;6.10;;;20.90;86.60;;;;;;5044396;28;20377;-78
2021/09/11 06:13:04;;;;;;;13.98;7.38;;;20.90;86.60;;;;;;5045074;28;20480;-79
2021/09/11 06:15:30;;;;;;;15.23;7.85;;;20.90;86.80;;;;;;5040246;28;20029;-80
2021/09/11 06:17:55;;;;;;;19.63;8.15;;;20.90;86.80;;;;;;5036824;28;20029;-79
2021/09/11 06:20:21;;;;;;;16.33;7.30;;;20.90;86.80;;;;;;5036190;28;20017;-79
2021/09/11 06:22:47;;;;;;;43.58;7.78;;;20.90;86.70;;;;;;5038272;28;20526;-78
2021/09/11 06:25:13;;;;;;;14.68;6.28;;;20.80;86.60;;;;;;5038847;28;20075;-79
2021/09/11 06:27:40;;;;;;;8.02;3.95;;;20.80;86.70;;;;;;5038385;28;20037;-79
2021/09/11 06:30:08;;;;;;;14.80;7.25;;;20.80;86.70;;;;;;5035624;28;20104;-80
2021/09/11 06:32:33;;;;;;;15.95;6.38;;;20.80;86.80;;;;;;5038049;28;20040;-78
2021/09/11 06:34:59;;;;;;;23.40;7.38;;;20.80;86.80;;;;;;5035146;28;20099;-79
2021/09/11 06:37:25;;;;;;;13.38;6.18;;;20.80;87.00;;;;;;5035981;28;20139;-79
2021/09/11 06:39:50;;;;;;;8.32;2.80;;;20.70;86.80;;;;;;5039653;28;20026;-79
2021/09/11 06:42:19;;;;;;;9.57;5.88;;;20.80;86.80;;;;;;5035028;28;20029;-78
2021/09/11 06:44:45;;;;;;;15.50;8.27;;;20.70;87.00;;;;;;5034137;28;20041;-79
2021/09/11 06:47:11;;;;;;;10.27;5.43;;;20.70;87.20;;;;;;5037376;28;20583;-80
2021/09/11 06:49:37;;;;;;;6.15;2.95;;;20.70;87.10;;;;;;5036092;28;20030;-79
2021/09/11 06:52:03;;;;;;;17.63;9.15;;;20.70;87.10;;;;;;5035736;28;20037;-80
2021/09/11 06:54:28;;;;;;;13.57;6.97;;;20.70;87.30;;;;;;5033654;28;20035;-78
2021/09/11 06:56:54;;;;;;;17.30;8.18;;;20.70;87.20;;;;;;5039216;28;20029;-80
2021/09/11 06:59:20;;;;;;;22.02;10.30;;;20.70;87.10;;;;;;5034763;28;20105;-81
2021/09/11 07:01:45;;;;;;;16.45;9.27;;;20.70;87.30;;;;;;5036032;28;20036;-80
2021/09/11 07:04:11;;;;;;;19.17;8.73;;;20.70;87.20;;;;;;5038764;28;20025;-81
2021/09/11 07:06:36;;;;;;;25.27;10.98;;;20.70;87.30;;;;;;5033683;28;20033;-80
2021/09/11 07:09:02;;;;;;;17.10;9.27;;;20.70;87.30;;;;;;5034228;28;20033;-78
2021/09/11 07:11:28;;;;;;;27.90;12.95;;;20.70;87.20;;;;;;5036845;28;20120;-79
2021/09/11 07:13:53;;;;;;;8.13;3.78;;;20.70;87.50;;;;;;5034121;28;20052;-80
2021/09/11 07:16:19;;;;;;;22.10;10.70;;;20.70;86.90;;;;;;5033243;28;20029;-79
2021/09/11 07:18:45;;;;;;;11.65;5.88;;;20.70;87.30;;;;;;5036503;28;20036;-80
2021/09/11 07:21:10;;;;;;;15.18;7.88;;;20.70;86.90;;;;;;5040005;28;20036;-81
2021/09/11 07:23:36;;;;;;;24.35;10.68;;;20.70;87.00;;;;;;5038875;28;20079;-75
2021/09/11 07:26:02;;;;;;;15.35;7.22;;;20.70;87.10;;;;;;5039327;28;20465;-75
2021/09/11 07:28:28;;;;;;;15.13;6.68;;;20.70;87.10;;;;;;5031750;28;20030;-76
2021/09/11 07:30:53;;;;;;;8.52;4.90;;;20.70;87.30;;;;;;5038568;28;20041;-76
2021/09/11 07:33:19;;;;;;;21.60;9.18;;;20.70;87.20;;;;;;5033700;28;20064;-76
2021/09/11 07:35:45;;;;;;;20.83;10.73;;;20.70;87.60;;;;;;5032597;28;20112;-76
2021/09/11 07:38:11;;;;;;;28.58;8.68;;;20.70;87.80;;;;;;5033708;28;20116;-73
2021/09/11 07:40:37;;;;;;;18.42;9.75;;;20.70;87.80;;;;;;5036372;28;20030;-78
2021/09/11 07:43:04;;;;;;;11.10;6.70;;;20.70;87.90;;;;;;5034238;28;20358;-78
2021/09/11 07:45:30;;;;;;;15.55;7.97;;;20.70;87.90;;;;;;5035205;28;20069;-78
2021/09/11 07:47:55;;;;;;;10.30;5.82;;;20.70;88.20;;;;;;5032678;28;20075;-78
2021/09/11 07:50:26;;;;;;;20.20;10.65;;;20.70;88.40;;;;;;5032710;28;20072;-78
2021/09/11 07:52:53;;;;;;;14.05;7.53;;;20.70;88.70;;;;;;5034105;28;20496;-79
2021/09/11 07:55:18;;;;;;;13.50;5.38;;;20.70;88.60;;;;;;5034653;28;20052;-78
2021/09/11 07:57:44;;;;;;;15.40;4.75;;;20.70;88.50;;;;;;5034228;28;20511;-79
2021/09/11 08:00:10;;;;;;;17.00;8.98;;;20.70;88.40;;;;;;5037525;28;20491;-86
2021/09/11 08:02:36;;;;;;;12.32;6.25;;;20.70;88.80;;;;;;5037638;28;20033;-88
2021/09/11 08:05:04;;;;;;;8.50;5.18;;;20.70;88.70;;;;;;5041203;28;20288;-82
2021/09/11 08:07:30;;;;;;;14.57;5.72;;;20.70;88.70;;;;;;5036390;28;20040;-80
2021/09/11 08:09:56;;;;;;;12.70;5.93;;;20.80;89.00;;;;;;5033289;28;20033;-81
2021/09/11 08:12:22;;;;;;;17.33;8.27;;;20.80;89.00;;;;;;5038159;28;20037;-86
2021/09/11 08:14:48;;;;;;;22.55;10.88;;;20.80;89.30;;;;;;5037126;28;20021;-86
2021/09/11 08:17:14;;;;;;;19.27;9.27;;;20.80;89.70;;;;;;5040883;28;20028;-83
2021/09/11 08:19:39;;;;;;;14.38;5.10;;;20.80;89.80;;;;;;5037726;28;20123;-80
2021/09/11 08:22:05;;;;;;;17.23;11.43;;;20.90;89.60;;;;;;5033465;28;20083;-79
2021/09/11 08:24:31;;;;;;;23.60;11.98;;;20.90;90.00;;;;;;5036460;28;20022;-82
2021/09/11 08:26:57;;;;;;;14.35;7.72;;;20.90;90.10;;;;;;5038300;28;20541;-80
2021/09/11 08:29:22;;;;;;;20.73;10.23;;;20.90;90.00;;;;;;5033682;28;20076;-81
2021/09/11 08:31:48;;;;;;;10.93;4.43;;;20.90;90.10;;;;;;5035088;28;20033;-79
2021/09/11 08:34:14;;;;;;;20.20;9.10;;;21.00;90.00;;;;;;5031403;28;20469;-81
2021/09/11 08:36:39;;;;;;;19.10;10.35;;;20.90;90.00;;;;;;5031549;28;20116;-83
2021/09/11 08:39:05;;;;;;;16.05;8.35;;;21.00;90.10;;;;;;5025974;28;20381;-79
2021/09/11 08:41:32;;;;;;;12.27;6.75;;;21.00;90.10;;;;;;5040849;28;20025;-83
2021/09/11 08:44:00;;;;;;;31.45;9.93;;;21.10;90.10;;;;;;5044301;28;20028;-87
2021/09/11 08:46:29;;;;;;;19.15;8.40;;;21.00;90.20;;;;;;5033447;28;20087;-87
2021/09/11 08:48:54;;;;;;;17.92;8.52;;;21.10;90.10;;;;;;5031767;28;20049;-81
2021/09/11 08:51:20;;;;;;;17.73;7.95;;;21.10;90.10;;;;;;5032675;28;20041;-82
2021/09/11 08:53:46;;;;;;;10.40;5.05;;;21.10;90.10;;;;;;5030531;28;20133;-83
2021/09/11 08:56:12;;;;;;;20.08;9.98;;;21.10;90.10;;;;;;5035319;28;20021;-82
2021/09/11 08:58:37;;;;;;;26.23;10.55;;;21.10;90.30;;;;;;5034338;28;20033;-78
2021/09/11 09:01:03;;;;;;;22.55;12.05;;;21.20;90.20;;;;;;5037528;28;20460;-83
2021/09/11 09:03:41;;;;;;;20.63;10.30;;;21.20;90.30;;;;;;5037508;28;20029;-85
2021/09/11 09:06:11;;;;;;;19.58;9.43;;;21.20;90.30;;;;;;5036815;28;20036;-82
2021/09/11 09:08:37;;;;;;;12.75;5.18;;;21.20;90.20;;;;;;5033011;28;20033;-85
2021/09/11 09:11:15;;;;;;;13.68;6.55;;;21.20;90.10;;;;;;5030138;28;20037;-82
2021/09/11 09:13:50;;;;;;;14.52;7.97;;;21.20;90.20;;;;;;5034907;28;20037;-85
2021/09/11 09:16:17;;;;;;;31.52;10.63;;;21.30;90.30;;;;;;5037451;28;20022;-83
2021/09/11 09:18:42;;;;;;;10.38;4.28;;;21.30;90.30;;;;;;5030645;28;20584;-78
2021/09/11 09:21:26;;;;;;;14.30;9.23;;;21.30;90.30;;;;;;5032779;28;20055;-81
2021/09/11 09:23:59;;;;;;;21.67;10.38;;;21.30;90.30;;;;;;5049088;28;20022;-79
2021/09/11 09:26:26;;;;;;;11.95;5.18;;;21.40;90.40;;;;;;5033920;28;20049;-78
2021/09/11 09:29:06;;;;;;;17.00;7.32;;;21.30;90.30;;;;;;5031965;28;20026;-77
2021/09/11 09:31:32;;;;;;;12.40;4.95;;;21.40;90.30;;;;;;5030919;28;20033;-81
2021/09/11 09:33:58;;;;;;;20.20;9.18;;;21.40;90.30;;;;;;5029669;28;20116;-78
2021/09/11 09:36:35;;;;;;;11.65;6.57;;;21.40;90.30;;;;;;5041105;28;20455;-77
2021/09/11 09:39:04;;;;;;;20.30;11.77;;;21.40;90.30;;;;;;5043529;28;20025;-76
2021/09/11 09:41:48;;;;;;;11.27;6.18;;;21.50;90.50;;;;;;5040185;28;20078;-82
2021/09/11 09:44:15;;;;;;;3.95;2.60;;;21.50;90.30;;;;;;5037702;28;20705;-81
2021/09/11 09:46:43;;;;;;;16.45;9.43;;;21.50;90.30;;;;;;5037706;28;20029;-78
2021/09/11 09:49:09;;;;;;;20.13;12.48;;;21.50;90.40;;;;;;5035697;28;20585;-82
2021/09/11 09:51:35;;;;;;;11.93;6.75;;;21.50;90.50;;;;;;5033007;28;20041;-82
2021/09/11 09:54:01;;;;;;;9.32;4.40;;;21.60;90.40;;;;;;5033360;28;20037;-81
2021/09/11 09:56:32;;;;;;;14.55;6.80;;;21.60;90.40;;;;;;5034263;28;20465;-82
2021/09/11 09:58:58;;;;;;;18.45;10.30;;;21.60;90.40;;;;;;5038184;28;20476;-82
2021/09/11 10:01:27;;;;;;;11.60;7.40;;;21.60;90.50;;;;;;5034326;28;20461;-81
2021/09/11 10:03:53;;;;;;;18.02;8.00;;;21.60;90.70;;;;;;5038903;28;20033;-82
2021/09/11 10:06:30;;;;;;;14.02;8.15;;;21.60;90.40;;;;;;5041839;28;20021;-81
2021/09/11 10:09:07;;;;;;;25.70;12.00;;;21.70;90.40;;;;;;5042999;28;20029;-83
2021/09/11 10:11:53;;;;;;;21.00;11.30;;;21.60;90.40;;;;;;5041786;28;20029;-82
2021/09/11 10:14:21;;;;;;;24.33;9.65;;;21.70;90.40;;;;;;5038217;28;20033;-83
2021/09/11 10:17:04;;;;;;;13.25;5.45;;;21.70;90.40;;;;;;5042152;28;20033;-82
2021/09/11 10:19:42;;;;;;;19.45;10.10;;;21.70;90.30;;;;;;5039167;28;20055;-81
2021/09/11 10:22:19;;;;;;;19.60;10.48;;;21.70;90.30;;;;;;5037755;28;20034;-83
2021/09/11 10:24:50;;;;;;;17.35;7.70;;;21.70;90.30;;;;;;5035042;28;20029;-82
2021/09/11 10:27:23;;;;;;;12.88;6.97;;;21.70;90.30;;;;;;5035320;28;20116;-81
2021/09/11 10:29:51;;;;;;;12.32;5.88;;;21.80;90.30;;;;;;5038687;28;20033;-85
2021/09/11 10:32:25;;;;;;;22.50;10.77;;;21.80;90.20;;;;;;5043201;28;20037;-83
2021/09/11 10:35:01;;;;;;;;;;;21.80;90.30;;;;;;5039303;28;20056;-88
2021/09/11 10:37:40;;;;;;;24.02;11.50;;;21.80;90.10;;;;;;5036026;28;20619;-81
2021/09/11 10:40:35;;;;;;;10.65;6.68;;;21.80;90.20;;;;;;5046128;28;20049;-83
2021/09/11 10:45:53;;;;;;;21.08;9.77;;;21.80;90.20;;;;;;5041724;28;20033;-82
2021/09/11 10:48:34;;;;;;;15.63;8.25;;;21.80;90.20;;;;;;5034027;28;20120;-81
2021/09/11 10:51:24;;;;;;;18.63;11.50;;;21.80;90.20;;;;;;5036128;28;20033;-79
2021/09/11 10:54:07;;;;;;;24.10;13.00;;;21.80;90.20;;;;;;5049327;28;20493;-78
2021/09/11 10:56:48;;;;;;;17.42;8.23;;;21.80;90.20;;;;;;5040578;28;20034;-80
2021/09/11 10:59:19;;;;;;;11.68;5.15;;;21.90;90.20;;;;;;5033592;28;20061;-84
2021/09/11 11:02:00;;;;;;;25.52;12.35;;;21.90;90.10;;;;;;5039041;28;20048;-80
2021/09/11 11:04:30;;;;;;;17.58;8.23;;;21.90;90.20;;;;;;5039994;28;20037;-80
2021/09/11 11:06:57;;;;;;;12.57;7.55;;;21.90;90.20;;;;;;5035880;28;20040;-80
2021/09/11 11:09:23;;;;;;;12.30;7.07;;;22.00;90.20;;;;;;5034205;28;20035;-81
2021/09/11 11:11:51;;;;;;;10.75;6.40;;;21.90;90.20;;;;;;5034630;28;20122;-79
2021/09/11 11:14:17;;;;;;;10.98;5.40;;;22.00;90.20;;;;;;5038426;28;20090;-83
2021/09/11 11:16:54;;;;;;;16.75;9.27;;;21.90;90.20;;;;;;5033584;28;20029;-78
2021/09/11 11:19:28;;;;;;;20.58;13.50;;;22.00;90.40;;;;;;5035468;28;20025;-80
2021/09/11 11:22:00;;;;;;;16.13;8.45;;;22.00;90.60;;;;;;5037309;28;20382;-78
2021/09/11 11:24:32;;;;;;;21.92;7.75;;;22.00;90.40;;;;;;5031730;28;20021;-79
2021/09/11 11:26:59;;;;;;;14.75;6.50;;;22.00;90.30;;;;;;5033960;28;20075;-78
2021/09/11 11:29:25;;;;;;;13.50;5.88;;;22.10;90.20;;;;;;5034784;28;20030;-79
2021/09/11 11:31:51;;;;;;;6.63;3.78;;;22.10;90.20;;;;;;5034594;28;20030;-84
2021/09/11 11:34:17;;;;;;;13.30;8.00;;;22.10;90.30;;;;;;5032396;28;20070;-83
2021/09/11 11:36:52;;;;;;;11.50;6.88;;;22.10;90.30;;;;;;5033708;28;20017;-81
2021/09/11 11:39:26;;;;;;;18.40;9.57;;;22.10;90.30;;;;;;5035274;28;20437;-76
2021/09/11 11:42:12;;;;;;;7.85;5.72;;;22.10;90.40;;;;;;5034625;28;20481;-80
2021/09/11 11:44:38;;;;;;;11.48;5.63;;;22.10;90.40;;;;;;5031452;28;20029;-86
2021/09/11 11:47:28;;;;;;;19.10;9.02;;;22.10;90.40;;;;;;5034347;28;20079;-78
2021/09/11 11:49:54;;;;;;;8.48;4.57;;;22.10;90.60;;;;;;5033040;28;20397;-83
2021/09/11 11:52:21;;;;;;;7.15;5.13;;;22.10;90.60;;;;;;5037962;28;20038;-82
2021/09/11 11:54:48;;;;;;;7.82;3.45;;;22.10;90.70;;;;;;5031562;28;20057;-82
2021/09/11 11:57:22;;;;;;;7.97;4.75;;;22.10;90.70;;;;;;5034136;28;20029;-84
2021/09/11 12:00:03;;;;;;;9.05;4.47;;;22.10;90.60;;;;;;5035267;28;20025;-83
2021/09/11 12:02:36;;;;;;;7.93;4.55;;;22.20;90.70;;;;;;5035976;28;20041;-82
2021/09/11 12:05:24;;;;;;;6.80;4.47;;;22.20;90.80;;;;;;5033020;28;20029;-81
2021/09/11 12:07:55;;;;;;;13.38;7.03;;;22.10;90.80;;;;;;5038048;28;20376;-81
2021/09/11 12:10:22;;;;;;;10.32;4.43;;;22.20;90.70;;;;;;5035592;28;20033;-81
2021/09/11 12:12:54;;;;;;;9.18;4.63;;;22.20;90.70;;;;;;5031195;28;20032;-83
2021/09/11 12:15:22;;;;;;;11.48;6.93;;;22.20;90.70;;;;;;5033848;28;20040;-88
2021/09/11 12:18:15;;;;;;;7.82;3.90;;;22.30;90.80;;;;;;5033697;28;20075;-89
2021/09/11 12:20:41;;;;;;;13.07;6.45;;;22.30;90.70;;;;;;5045934;28;20125;-88
2021/09/11 12:23:11;;;;;;;11.25;6.78;;;22.30;90.70;;;;;;5049910;28;20076;-88
2021/09/11 12:25:51;;;;;;;16.95;6.43;;;22.40;90.70;;;;;;5035317;28;20033;-91
2021/09/11 12:28:38;;;;;;;7.75;4.95;;;22.40;90.70;;;;;;5035266;28;20032;-89
2021/09/11 12:31:25;;;;;;;16.17;6.63;;;22.50;90.60;;;;;;5044848;28;20038;-89
2021/09/11 12:34:00;;;;;;;16.10;5.85;;;22.50;90.50;;;;;;5044820;28;20060;-88
2021/09/11 12:36:39;;;;;;;13.18;8.35;;;22.60;90.40;;;;;;5034190;28;20099;-89
2021/09/11 12:39:30;;;;;;;14.48;8.45;;;22.60;90.40;;;;;;5033881;28;20025;-88